createdAt,value
2023-05-13T00:00:59.142Z,3.30
2023-05-13T00:03:32.756Z,3.52
2023-05-13T00:06:05.530Z,4.00
2023-05-13T00:08:37.654Z,2.70
2023-05-13T00:11:10.144Z,2.62
2023-05-13T00:13:42.337Z,3.40
2023-05-13T00:16:14.447Z,2.70
2023-05-13T00:18:46.877Z,2.80
2023-05-13T00:21:19.126Z,3.05
2023-05-13T00:23:51.477Z,3.02
2023-05-13T00:26:24.314Z,3.22
2023-05-13T00:28:56.754Z,2.75
2023-05-13T00:31:29.039Z,2.77
2023-05-13T00:34:01.209Z,2.35
2023-05-13T00:36:34.283Z,2.83
2023-05-13T00:39:06.388Z,3.08
2023-05-13T00:41:38.709Z,2.98
2023-05-13T00:44:12.708Z,2.92
2023-05-13T00:46:45.181Z,3.12
2023-05-13T00:49:17.801Z,2.70
2023-05-13T00:51:51.381Z,2.55
2023-05-13T00:54:23.722Z,2.70
2023-05-13T00:56:57.226Z,2.55
2023-05-13T00:59:31.787Z,3.00
2023-05-13T01:02:15.922Z,3.08
2023-05-13T01:05:06.239Z,3.00
2023-05-13T01:07:56.086Z,3.10
2023-05-13T01:10:47.914Z,3.42
2023-05-13T01:13:23.424Z,2.80
2023-05-13T01:16:17.973Z,3.02
2023-05-13T01:18:53.177Z,2.72
2023-05-13T01:21:29.695Z,2.95
2023-05-13T01:24:03.859Z,2.40
2023-05-13T01:26:35.709Z,2.85
2023-05-13T01:29:07.937Z,3.17
2023-05-13T01:31:42.641Z,2.65
2023-05-13T01:34:16.487Z,2.40
2023-05-13T01:36:49.774Z,2.52
2023-05-13T01:39:24.222Z,2.42
2023-05-13T01:41:57.846Z,2.50
2023-05-13T01:44:30.176Z,2.60
2023-05-13T01:47:03.575Z,3.15
2023-05-13T01:49:35.615Z,2.58
2023-05-13T01:52:07.894Z,2.95
2023-05-13T01:54:39.947Z,3.10
2023-05-13T01:57:13.675Z,3.30
2023-05-13T01:59:45.960Z,3.02
2023-05-13T02:02:18.998Z,3.22
2023-05-13T02:04:51.308Z,4.00
2023-05-13T02:07:23.473Z,3.35
2023-05-13T02:09:57.218Z,3.20
2023-05-13T02:12:29.571Z,3.47
2023-05-13T02:15:02.198Z,3.80
2023-05-13T02:17:36.779Z,3.22
2023-05-13T02:20:10.216Z,4.40
2023-05-13T02:22:42.513Z,3.45
2023-05-13T02:25:14.702Z,3.35
2023-05-13T02:27:46.946Z,3.58
2023-05-13T02:30:19.640Z,3.30
2023-05-13T02:32:52.088Z,3.25
2023-05-13T02:35:25.870Z,3.25
2023-05-13T02:37:58.703Z,3.50
2023-05-13T02:40:30.994Z,2.75
2023-05-13T02:43:03.786Z,2.58
2023-05-13T02:45:37.703Z,3.02
2023-05-13T02:48:11.243Z,2.92
2023-05-13T02:50:43.657Z,3.35
2023-05-13T02:53:16.629Z,3.47
2023-05-13T02:58:22.228Z,2.75
2023-05-13T03:00:54.621Z,2.90
2023-05-13T03:03:29.864Z,3.00
2023-05-13T03:06:02.394Z,3.15
2023-05-13T03:08:34.662Z,3.00
2023-05-13T03:11:07.091Z,2.90
2023-05-13T03:13:39.114Z,3.12
2023-05-13T03:16:11.439Z,3.37
2023-05-13T03:18:43.802Z,3.17
2023-05-13T03:21:16.033Z,3.08
2023-05-13T03:23:48.872Z,3.27
2023-05-13T03:26:22.420Z,4.62
2023-05-13T03:28:54.558Z,4.55
2023-05-13T03:31:27.416Z,3.35
2023-05-13T03:34:00.524Z,3.08
2023-05-13T03:36:34.132Z,3.37
2023-05-13T03:39:06.351Z,3.30
2023-05-13T03:41:38.627Z,4.10
2023-05-13T03:44:10.763Z,3.67
2023-05-13T03:46:43.714Z,3.20
2023-05-13T03:49:15.940Z,3.08
2023-05-13T03:51:48.320Z,2.90
2023-05-13T03:54:20.672Z,3.00
2023-05-13T03:56:53.322Z,3.42
2023-05-13T03:59:25.649Z,3.17
2023-05-13T04:01:57.772Z,2.95
2023-05-13T04:04:29.905Z,3.05
2023-05-13T04:07:02.610Z,2.80
2023-05-13T04:09:35.944Z,3.20
2023-05-13T04:12:08.409Z,2.65
2023-05-13T04:14:40.604Z,3.02
2023-05-13T04:17:13.584Z,2.50
2023-05-13T04:19:46.194Z,3.12
2023-05-13T04:22:18.461Z,2.90
2023-05-13T04:24:55.480Z,3.70
2023-05-13T04:27:27.737Z,2.75
2023-05-13T04:30:01.680Z,2.37
2023-05-13T04:32:35.819Z,3.35
2023-05-13T04:35:11.560Z,2.47
2023-05-13T04:37:45.418Z,2.45
2023-05-13T04:40:19.413Z,2.25
2023-05-13T04:42:53.975Z,2.33
2023-05-13T04:45:27.935Z,2.60
2023-05-13T04:48:00.469Z,2.52
2023-05-13T04:50:33.174Z,2.60
2023-05-13T04:53:06.618Z,2.47
2023-05-13T04:55:38.676Z,2.25
2023-05-13T04:58:10.750Z,2.50
2023-05-13T05:00:43.315Z,2.30
2023-05-13T05:03:16.135Z,2.83
2023-05-13T05:05:48.963Z,2.10
2023-05-13T05:08:21.685Z,2.77
2023-05-13T05:10:55.673Z,3.05
2023-05-13T05:13:27.892Z,2.67
2023-05-13T05:16:00.249Z,3.35
2023-05-13T05:18:36.495Z,3.75
2023-05-13T05:21:09.907Z,3.47
2023-05-13T05:23:42.672Z,1.95
2023-05-13T05:26:15.917Z,2.87
2023-05-13T05:28:48.370Z,2.80
2023-05-13T05:31:21.734Z,3.02
2023-05-13T05:33:55.286Z,2.58
2023-05-13T05:36:27.696Z,2.77
2023-05-13T05:39:00.158Z,1.80
2023-05-13T05:41:34.459Z,2.12
2023-05-13T05:44:06.860Z,2.20
2023-05-13T05:46:39.268Z,2.45
2023-05-13T05:49:11.919Z,2.90
2023-05-13T05:51:44.296Z,1.80
2023-05-13T05:54:16.977Z,1.90
2023-05-13T05:56:49.509Z,2.37
2023-05-13T05:59:22.349Z,2.10
2023-05-13T06:01:54.706Z,1.50
2023-05-13T06:04:26.882Z,1.75
2023-05-13T06:06:59.476Z,2.12
2023-05-13T06:09:32.369Z,2.47
2023-05-13T06:12:05.275Z,2.30
2023-05-13T06:14:37.479Z,2.65
2023-05-13T06:17:09.755Z,1.70
2023-05-13T06:19:44.125Z,2.00
2023-05-13T06:22:16.451Z,2.55
2023-05-13T06:24:49.082Z,1.62
2023-05-13T06:27:21.800Z,1.95
2023-05-13T06:29:54.584Z,1.77
2023-05-13T06:32:27.523Z,2.58
2023-05-13T06:35:00.015Z,2.67
2023-05-13T06:37:34.172Z,1.70
2023-05-13T06:40:08.978Z,1.67
2023-05-13T06:42:43.506Z,2.08
2023-05-13T06:45:21.649Z,1.90
2023-05-13T06:47:54.891Z,1.90
2023-05-13T06:50:27.638Z,1.87
2023-05-13T06:53:00.692Z,2.00
2023-05-13T06:55:35.373Z,1.65
2023-05-13T06:58:08.625Z,1.70
2023-05-13T07:00:42.425Z,2.00
2023-05-13T07:03:17.853Z,1.62
2023-05-13T07:05:51.150Z,1.80
2023-05-13T07:08:23.716Z,1.80
2023-05-13T07:10:56.573Z,2.22
2023-05-13T07:13:30.382Z,1.80
2023-05-13T07:16:03.366Z,1.85
2023-05-13T07:18:35.703Z,2.22
2023-05-13T07:21:08.387Z,1.70
2023-05-13T07:23:41.995Z,1.98
2023-05-13T07:26:14.952Z,1.90
2023-05-13T07:28:47.588Z,1.77
2023-05-13T07:31:20.113Z,2.00
2023-05-13T07:33:52.463Z,2.02
2023-05-13T07:36:25.685Z,2.02
2023-05-13T07:38:58.079Z,2.15
2023-05-13T07:41:30.487Z,2.08
2023-05-13T07:44:03.174Z,1.77
2023-05-13T07:46:35.867Z,2.10
2023-05-13T07:49:08.927Z,2.02
2023-05-13T07:51:41.751Z,1.95
2023-05-13T07:54:14.665Z,2.27
2023-05-13T07:56:48.069Z,1.90
2023-05-13T07:59:20.483Z,1.40
2023-05-13T08:01:53.119Z,1.70
2023-05-13T08:04:27.222Z,2.05
2023-05-13T08:06:59.801Z,2.58
2023-05-13T08:09:32.245Z,1.52
2023-05-13T08:12:04.856Z,2.40
2023-05-13T08:14:38.075Z,1.75
2023-05-13T08:17:10.455Z,2.05
2023-05-13T08:19:43.302Z,1.87
2023-05-13T08:22:15.396Z,1.40
2023-05-13T08:24:47.878Z,2.00
2023-05-13T08:27:20.066Z,1.60
2023-05-13T08:29:52.633Z,1.70
2023-05-13T08:32:25.588Z,1.85
2023-05-13T08:34:57.945Z,1.50
2023-05-13T08:37:30.399Z,1.77
2023-05-13T08:40:04.678Z,1.45
2023-05-13T08:42:40.132Z,1.55
2023-05-13T08:45:14.597Z,1.30
2023-05-13T08:50:30.996Z,2.20
2023-05-13T08:55:35.758Z,1.80
2023-05-13T08:58:08.607Z,1.60
2023-05-13T09:00:41.655Z,1.40
2023-05-13T09:03:15.376Z,2.00
2023-05-13T09:05:49.130Z,1.25
2023-05-13T09:08:21.350Z,2.15
2023-05-13T09:10:54.657Z,1.80
2023-05-13T09:13:26.957Z,2.30
2023-05-13T09:15:59.350Z,1.90
2023-05-13T09:18:35.151Z,5.40
2023-05-13T09:21:28.187Z,1.90
2023-05-13T09:24:16.372Z,1.65
2023-05-13T09:26:51.472Z,2.72
2023-05-13T09:29:32.248Z,1.92
2023-05-13T09:32:08.605Z,2.08
2023-05-13T09:34:41.631Z,1.95
2023-05-13T09:37:17.331Z,1.95
2023-05-13T09:39:53.010Z,1.82
2023-05-13T09:42:25.600Z,1.75
2023-05-13T09:44:58.263Z,2.12
2023-05-13T09:50:06.102Z,1.52
2023-05-13T09:52:39.884Z,2.50
2023-05-13T09:55:13.057Z,1.52
2023-05-13T09:57:47.693Z,1.62
2023-05-13T10:02:53.378Z,1.72
2023-05-13T10:05:26.205Z,1.95
2023-05-13T10:07:59.588Z,2.40
2023-05-13T10:10:33.574Z,1.42
2023-05-13T10:13:08.967Z,1.35
2023-05-13T10:15:50.590Z,2.42
2023-05-13T10:18:24.699Z,1.52
2023-05-13T10:20:58.467Z,1.70
2023-05-13T10:23:32.802Z,1.60
2023-05-13T10:26:07.661Z,1.60
2023-05-13T10:28:41.045Z,2.22
2023-05-13T10:31:13.305Z,2.60
2023-05-13T10:33:46.691Z,2.58
2023-05-13T10:36:44.187Z,2.00
2023-05-13T10:39:25.832Z,1.40
2023-05-13T10:42:19.029Z,2.72
2023-05-13T10:44:55.948Z,1.75
2023-05-13T10:47:30.489Z,2.62
2023-05-13T10:52:45.891Z,1.98
2023-05-13T10:55:23.102Z,1.67
2023-05-13T10:58:15.453Z,2.20
2023-05-13T11:00:48.189Z,1.40
2023-05-13T11:03:23.531Z,2.58
2023-05-13T11:06:04.807Z,1.80
2023-05-13T11:08:48.176Z,1.70
2023-05-13T11:11:29.351Z,1.47
2023-05-13T11:14:09.358Z,2.10
2023-05-13T11:16:56.108Z,2.40
2023-05-13T11:19:30.217Z,1.70
2023-05-13T11:22:13.691Z,1.70
2023-05-13T11:25:07.567Z,2.12
2023-05-13T11:27:42.356Z,1.50
2023-05-13T11:30:28.255Z,1.82
2023-05-13T11:33:03.096Z,1.62
2023-05-13T11:35:35.464Z,1.70
2023-05-13T11:38:08.021Z,1.75
2023-05-13T11:40:41.270Z,1.70
2023-05-13T11:43:15.578Z,1.50
2023-05-13T11:45:49.157Z,2.02
2023-05-13T11:48:24.506Z,1.30
2023-05-13T11:53:29.736Z,1.80
2023-05-13T11:56:12.701Z,1.67
2023-05-13T11:58:45.381Z,1.42
2023-05-13T12:01:17.854Z,1.67
2023-05-13T12:03:50.507Z,1.30
2023-05-13T12:06:23.012Z,1.60
2023-05-13T12:08:55.308Z,1.50
2023-05-13T12:11:27.764Z,2.00
2023-05-13T12:14:00.192Z,1.62
2023-05-13T12:16:32.489Z,1.35
2023-05-13T12:19:07.458Z,1.60
2023-05-13T12:21:40.820Z,1.57
2023-05-13T12:24:22.199Z,1.30
2023-05-13T12:26:54.995Z,1.32
2023-05-13T12:29:27.281Z,1.60
2023-05-13T12:32:07.605Z,1.50
2023-05-13T12:34:40.168Z,1.77
2023-05-13T12:37:14.697Z,1.35
2023-05-13T12:39:47.836Z,1.10
2023-05-13T12:42:20.595Z,1.30
2023-05-13T12:44:53.361Z,1.50
2023-05-13T12:47:25.608Z,2.15
2023-05-13T12:49:59.849Z,1.32
2023-05-13T12:52:33.771Z,2.00
2023-05-13T12:55:07.086Z,1.27
2023-05-13T12:57:39.330Z,1.20
2023-05-13T13:00:12.691Z,1.40
2023-05-13T13:02:46.181Z,1.45
2023-05-13T13:05:19.761Z,1.37
2023-05-13T13:07:52.795Z,1.37
2023-05-13T13:10:27.039Z,1.60
2023-05-13T13:12:59.265Z,1.55
2023-05-13T13:15:31.822Z,1.50
2023-05-13T13:18:04.694Z,1.70
2023-05-13T13:20:37.939Z,1.93
2023-05-13T13:23:11.156Z,1.37
2023-05-13T13:25:43.661Z,1.35
2023-05-13T13:28:16.325Z,1.35
2023-05-13T13:30:48.609Z,1.92
2023-05-13T13:33:22.572Z,1.52
2023-05-13T13:35:54.779Z,1.47
2023-05-13T13:38:27.209Z,1.15
2023-05-13T13:40:59.314Z,1.40
2023-05-13T13:43:31.563Z,2.02
2023-05-13T13:46:03.686Z,2.10
2023-05-13T13:48:35.901Z,2.72
2023-05-13T13:51:08.250Z,1.25
2023-05-13T13:53:40.658Z,1.17
2023-05-13T13:56:12.850Z,1.70
2023-05-13T13:58:45.135Z,2.00
2023-05-13T14:01:17.607Z,2.02
2023-05-13T14:03:51.935Z,1.47
2023-05-13T14:06:24.079Z,2.77
2023-05-13T14:08:56.081Z,1.30
2023-05-13T14:11:28.485Z,2.20
2023-05-13T14:14:01.959Z,2.07
2023-05-13T14:16:34.310Z,1.22
2023-05-13T14:19:06.570Z,1.92
2023-05-13T14:21:39.021Z,1.40
2023-05-13T14:24:12.139Z,1.42
2023-05-13T14:26:44.243Z,1.63
2023-05-13T14:29:16.597Z,1.62
2023-05-13T14:31:49.188Z,1.65
2023-05-13T14:34:23.023Z,1.40
2023-05-13T14:39:26.371Z,1.57
2023-05-13T14:41:58.979Z,1.47
2023-05-13T14:44:31.459Z,1.70
2023-05-13T14:47:03.589Z,2.15
2023-05-13T14:49:36.058Z,1.90
2023-05-13T14:52:08.595Z,1.85
2023-05-13T14:54:41.612Z,1.27
2023-05-13T14:57:14.634Z,1.35
2023-05-13T14:59:46.837Z,1.30
2023-05-13T15:02:19.353Z,1.57
2023-05-13T15:04:51.676Z,1.90
2023-05-13T15:07:23.925Z,2.45
2023-05-13T15:09:56.815Z,2.30
2023-05-13T15:12:29.126Z,1.60
2023-05-13T15:15:01.391Z,2.67
2023-05-13T15:17:35.067Z,2.25
2023-05-13T15:20:08.275Z,2.15
2023-05-13T15:22:40.301Z,1.47
2023-05-13T15:25:12.824Z,2.00
2023-05-13T15:27:45.169Z,1.98
2023-05-13T15:30:17.632Z,3.10
2023-05-13T15:32:50.101Z,3.35
2023-05-13T15:35:22.351Z,2.50
2023-05-13T15:37:54.481Z,2.00
2023-05-13T15:40:26.965Z,2.55
2023-05-13T15:42:59.199Z,1.82
2023-05-13T15:45:31.490Z,1.87
2023-05-13T15:48:04.418Z,2.25
2023-05-13T15:50:36.616Z,1.82
2023-05-13T15:53:08.686Z,1.70
2023-05-13T15:55:40.857Z,1.98
2023-05-13T15:58:13.224Z,2.05
2023-05-13T16:00:45.652Z,2.55
2023-05-13T16:03:18.259Z,1.95
2023-05-13T16:05:51.214Z,2.65
2023-05-13T16:08:23.995Z,2.70
2023-05-13T16:10:56.741Z,2.40
2023-05-13T16:13:28.797Z,3.08
2023-05-13T16:16:00.894Z,2.77
2023-05-13T16:18:33.223Z,2.05
2023-05-13T16:21:05.387Z,1.92
2023-05-13T16:23:37.436Z,2.75
2023-05-13T16:26:09.801Z,2.35
2023-05-13T16:28:42.336Z,1.92
2023-05-13T16:31:15.037Z,1.92
2023-05-13T16:33:47.694Z,2.58
2023-05-13T16:36:20.155Z,2.85
2023-05-13T16:38:52.645Z,2.47
2023-05-13T16:41:24.799Z,2.00
2023-05-13T16:43:56.902Z,2.37
2023-05-13T16:46:29.241Z,2.62
2023-05-13T16:49:19.426Z,3.00
2023-05-13T16:51:51.655Z,2.70
2023-05-13T16:54:23.727Z,2.83
2023-05-13T16:56:55.856Z,3.87
2023-05-13T16:59:28.954Z,4.75
2023-05-13T17:02:01.712Z,2.58
2023-05-13T17:04:33.872Z,2.20
2023-05-13T17:07:06.031Z,2.75
2023-05-13T17:09:38.420Z,2.25
2023-05-13T17:12:10.769Z,2.47
2023-05-13T17:14:42.793Z,2.20
2023-05-13T17:17:15.251Z,2.20
2023-05-13T17:19:47.887Z,1.57
2023-05-13T17:22:20.132Z,2.30
2023-05-13T17:24:52.532Z,1.70
2023-05-13T17:27:25.155Z,2.00
2023-05-13T17:29:57.766Z,1.82
2023-05-13T17:32:31.921Z,1.90
2023-05-13T17:35:05.815Z,2.50
2023-05-13T17:37:38.007Z,2.20
2023-05-13T17:40:10.884Z,2.22
2023-05-13T17:42:43.150Z,2.70
2023-05-13T17:45:15.190Z,2.10
2023-05-13T17:47:47.534Z,2.72
2023-05-13T17:50:20.308Z,2.60
2023-05-13T17:52:52.746Z,2.60
2023-05-13T17:55:24.967Z,2.25
2023-05-13T17:57:56.978Z,2.62
2023-05-13T18:00:29.299Z,2.58
2023-05-13T18:03:01.641Z,2.98
2023-05-13T18:05:34.292Z,2.10
2023-05-13T18:08:06.851Z,2.27
2023-05-13T18:10:39.092Z,2.75
2023-05-13T18:13:12.211Z,2.10
2023-05-13T18:15:44.370Z,2.75
2023-05-13T18:18:17.685Z,2.12
2023-05-13T18:20:50.418Z,3.37
2023-05-13T18:23:22.635Z,2.30
2023-05-13T18:25:56.172Z,3.22
2023-05-13T18:28:29.033Z,2.83
2023-05-13T18:31:01.652Z,2.90
2023-05-13T18:33:33.882Z,2.25
2023-05-13T18:36:06.262Z,2.60
2023-05-13T18:38:39.748Z,2.70
2023-05-13T18:41:12.088Z,3.22
2023-05-13T18:43:44.249Z,2.70
2023-05-13T18:46:16.540Z,2.50
2023-05-13T18:48:48.862Z,2.62
2023-05-13T18:51:21.140Z,2.85
2023-05-13T18:53:53.178Z,3.10
2023-05-13T18:56:25.667Z,2.52
2023-05-13T18:58:57.871Z,3.52
2023-05-13T19:01:30.269Z,2.37
2023-05-13T19:04:02.693Z,2.45
2023-05-13T19:06:38.139Z,3.10
2023-05-13T19:09:10.617Z,3.00
2023-05-13T19:11:42.955Z,2.35
2023-05-13T19:14:14.977Z,2.90
2023-05-13T19:16:47.174Z,2.02
2023-05-13T19:19:19.440Z,2.35
2023-05-13T19:21:51.559Z,2.17
2023-05-13T19:24:23.751Z,2.60
2023-05-13T19:26:56.153Z,3.00
2023-05-13T19:29:28.337Z,2.62
2023-05-13T19:32:02.514Z,2.80
2023-05-13T19:34:34.916Z,2.20
2023-05-13T19:37:07.554Z,2.50
2023-05-13T19:39:39.788Z,3.33
2023-05-13T19:42:12.363Z,2.50
2023-05-13T19:44:44.850Z,2.25
2023-05-13T19:47:17.342Z,2.55
2023-05-13T19:49:49.764Z,2.27
2023-05-13T19:52:22.667Z,2.58
2023-05-13T19:54:55.146Z,2.37
2023-05-13T19:57:29.917Z,2.17
2023-05-13T20:00:01.357Z,2.55
2023-05-13T20:02:35.213Z,3.30
2023-05-13T20:05:09.819Z,2.50
2023-05-13T20:07:42.304Z,2.00
2023-05-13T20:12:34.973Z,2.50
2023-05-13T20:15:07.705Z,2.85
2023-05-13T20:17:39.998Z,2.60
2023-05-13T20:20:12.598Z,2.27
2023-05-13T20:22:44.812Z,2.40
2023-05-13T20:25:16.945Z,2.45
2023-05-13T20:27:50.177Z,2.02
2023-05-13T20:30:22.911Z,2.37
2023-05-13T20:32:55.171Z,1.55
2023-05-13T20:35:27.803Z,1.50
2023-05-13T20:38:00.882Z,2.00
2023-05-13T20:40:33.266Z,1.72
2023-05-13T20:43:07.660Z,1.90
2023-05-13T20:45:39.788Z,1.72
2023-05-13T20:48:13.258Z,2.00
2023-05-13T20:50:45.659Z,2.37
2023-05-13T20:53:17.897Z,1.90
2023-05-13T20:55:49.804Z,1.85
2023-05-13T20:58:21.957Z,1.80
2023-05-13T21:00:54.412Z,1.70
2023-05-13T21:03:26.875Z,1.45
2023-05-13T21:05:58.959Z,2.33
2023-05-13T21:08:31.356Z,1.70
2023-05-13T21:11:04.180Z,1.57
2023-05-13T21:13:36.886Z,1.20
2023-05-13T21:16:09.383Z,1.60
2023-05-13T21:18:41.583Z,1.77
2023-05-13T21:21:13.874Z,1.80
2023-05-13T21:23:48.062Z,3.05
2023-05-13T21:28:52.607Z,1.67
2023-05-13T21:31:27.136Z,2.95
2023-05-13T21:33:59.406Z,1.67
2023-05-13T21:36:34.288Z,2.20
2023-05-13T21:39:07.707Z,1.62
2023-05-13T21:41:40.491Z,1.35
2023-05-13T21:44:13.311Z,1.60
2023-05-13T21:46:45.312Z,1.20
2023-05-13T21:49:17.876Z,1.30
2023-05-13T21:51:51.784Z,1.70
2023-05-13T21:54:23.943Z,1.57
2023-05-13T21:56:57.297Z,1.40
2023-05-13T21:59:29.462Z,1.70
2023-05-13T22:02:01.623Z,1.50
2023-05-13T22:04:33.720Z,1.10
2023-05-13T22:07:06.604Z,1.30
2023-05-13T22:09:38.739Z,1.80
2023-05-13T22:12:10.960Z,1.40
2023-05-13T22:14:43.107Z,1.37
2023-05-13T22:17:15.662Z,1.40
2023-05-13T22:19:47.930Z,1.60
2023-05-13T22:22:20.569Z,1.47
2023-05-13T22:24:52.789Z,1.40
2023-05-13T22:27:25.091Z,1.32
2023-05-13T22:29:57.285Z,1.52
2023-05-13T22:32:29.823Z,1.50
2023-05-13T22:35:02.919Z,1.80
2023-05-13T22:37:36.128Z,1.40
2023-05-13T22:40:11.109Z,1.60
2023-05-13T22:42:43.373Z,1.65
2023-05-13T22:45:15.698Z,1.20
2023-05-13T22:47:48.848Z,1.30
2023-05-13T22:50:21.381Z,1.42
2023-05-13T22:52:53.914Z,1.85
2023-05-13T22:55:26.997Z,1.47
2023-05-13T22:58:00.007Z,1.40
2023-05-13T23:00:32.760Z,1.12
2023-05-13T23:03:04.898Z,1.37
2023-05-13T23:05:37.006Z,1.35
2023-05-13T23:08:09.220Z,1.10
2023-05-13T23:10:41.340Z,1.40
2023-05-13T23:13:13.335Z,1.12
2023-05-13T23:15:45.353Z,1.22
2023-05-13T23:18:17.669Z,1.80
2023-05-13T23:20:55.768Z,1.50
2023-05-13T23:23:28.149Z,1.30
2023-05-13T23:26:00.332Z,1.45
2023-05-13T23:28:33.098Z,1.50
2023-05-13T23:31:05.261Z,1.30
2023-05-13T23:33:37.536Z,1.50
2023-05-13T23:36:09.670Z,1.45
2023-05-13T23:38:41.751Z,1.62
2023-05-13T23:41:13.608Z,1.37
2023-05-13T23:43:45.796Z,1.50
2023-05-13T23:46:18.301Z,1.45
2023-05-13T23:48:51.088Z,1.30
2023-05-13T23:51:23.605Z,1.80
2023-05-13T23:53:55.796Z,1.52
2023-05-13T23:56:28.578Z,1.47
2023-05-13T23:59:00.628Z,1.57
